sensor_id;sensor_type;location;lat;lon;timestamp;temperature;humidity
2763;DHT22;1389;51.490;7.338;2022-08-04T00:00:55;24.40;64.00
2763;DHT22;1389;51.490;7.338;2022-08-04T00:03:32;24.40;64.10
2763;DHT22;1389;51.490;7.338;2022-08-04T00:06:13;24.30;64.30
2763;DHT22;1389;51.490;7.338;2022-08-04T00:11:08;24.30;64.40
2763;DHT22;1389;51.490;7.338;2022-08-04T00:13:38;24.30;64.50
2763;DHT22;1389;51.490;7.338;2022-08-04T00:16:08;24.30;64.40
2763;DHT22;1389;51.490;7.338;2022-08-04T00:18:45;24.40;64.40
2763;DHT22;1389;51.490;7.338;2022-08-04T00:21:18;24.30;64.40
2763;DHT22;1389;51.490;7.338;2022-08-04T00:23:47;24.30;64.60
2763;DHT22;1389;51.490;7.338;2022-08-04T00:26:16;24.30;64.70
2763;DHT22;1389;51.490;7.338;2022-08-04T00:28:43;24.30;64.70
2763;DHT22;1389;51.490;7.338;2022-08-04T00:31:10;24.20;64.90
2763;DHT22;1389;51.490;7.338;2022-08-04T00:33:43;24.20;65.00
2763;DHT22;1389;51.490;7.338;2022-08-04T00:36:12;24.10;65.10
2763;DHT22;1389;51.490;7.338;2022-08-04T00:38:43;24.10;65.30
2763;DHT22;1389;51.490;7.338;2022-08-04T00:41:25;24.00;65.40
2763;DHT22;1389;51.490;7.338;2022-08-04T00:47:16;23.90;65.80
2763;DHT22;1389;51.490;7.338;2022-08-04T00:49:53;23.90;65.80
2763;DHT22;1389;51.490;7.338;2022-08-04T00:58:41;23.70;66.30
2763;DHT22;1389;51.490;7.338;2022-08-04T01:01:16;23.70;66.50
2763;DHT22;1389;51.490;7.338;2022-08-04T01:09:23;23.60;66.70
2763;DHT22;1389;51.490;7.338;2022-08-04T01:17:18;23.60;66.70
2763;DHT22;1389;51.490;7.338;2022-08-04T01:32:55;23.70;66.90
2763;DHT22;1389;51.490;7.338;2022-08-04T01:35:27;23.70;67.00
2763;DHT22;1389;51.490;7.338;2022-08-04T01:38:00;23.70;67.00
2763;DHT22;1389;51.490;7.338;2022-08-04T01:40:29;23.70;67.00
2763;DHT22;1389;51.490;7.338;2022-08-04T01:42:57;23.70;67.10
2763;DHT22;1389;51.490;7.338;2022-08-04T01:45:24;23.70;67.20
2763;DHT22;1389;51.490;7.338;2022-08-04T01:47:53;23.60;67.10
2763;DHT22;1389;51.490;7.338;2022-08-04T01:50:21;23.60;67.30
2763;DHT22;1389;51.490;7.338;2022-08-04T01:52:49;23.50;67.40
2763;DHT22;1389;51.490;7.338;2022-08-04T01:55:17;23.50;67.60
2763;DHT22;1389;51.490;7.338;2022-08-04T01:57:46;23.50;67.60
2763;DHT22;1389;51.490;7.338;2022-08-04T02:00:25;23.40;67.70
2763;DHT22;1389;51.490;7.338;2022-08-04T02:02:53;23.40;68.00
2763;DHT22;1389;51.490;7.338;2022-08-04T02:05:22;23.30;68.20
2763;DHT22;1389;51.490;7.338;2022-08-04T02:10:30;23.20;68.40
2763;DHT22;1389;51.490;7.338;2022-08-04T02:15:44;23.20;68.50
2763;DHT22;1389;51.490;7.338;2022-08-04T02:18:22;23.20;68.40
2763;DHT22;1389;51.490;7.338;2022-08-04T02:20:56;23.20;68.50
2763;DHT22;1389;51.490;7.338;2022-08-04T02:23:37;23.20;68.50
2763;DHT22;1389;51.490;7.338;2022-08-04T02:26:11;23.20;68.60
2763;DHT22;1389;51.490;7.338;2022-08-04T02:31:47;23.20;68.70
2763;DHT22;1389;51.490;7.338;2022-08-04T02:35:00;23.20;68.90
2763;DHT22;1389;51.490;7.338;2022-08-04T02:37:31;23.10;69.00
2763;DHT22;1389;51.490;7.338;2022-08-04T02:40:03;23.00;69.30
2763;DHT22;1389;51.490;7.338;2022-08-04T02:42:29;23.00;69.40
2763;DHT22;1389;51.490;7.338;2022-08-04T02:44:58;23.00;69.40
2763;DHT22;1389;51.490;7.338;2022-08-04T02:47:26;23.00;69.50
2763;DHT22;1389;51.490;7.338;2022-08-04T02:49:53;22.90;69.50
2763;DHT22;1389;51.490;7.338;2022-08-04T02:52:22;22.80;69.70
2763;DHT22;1389;51.490;7.338;2022-08-04T02:54:53;22.80;69.80
2763;DHT22;1389;51.490;7.338;2022-08-04T02:57:23;22.80;69.90
2763;DHT22;1389;51.490;7.338;2022-08-04T03:05:27;22.70;69.90
2763;DHT22;1389;51.490;7.338;2022-08-04T03:08:19;22.70;70.00
2763;DHT22;1389;51.490;7.338;2022-08-04T03:21:59;22.70;70.10
2763;DHT22;1389;51.490;7.338;2022-08-04T03:33:50;22.80;70.10
2763;DHT22;1389;51.490;7.338;2022-08-04T03:48:14;22.40;71.10
2763;DHT22;1389;51.490;7.338;2022-08-04T03:51:01;22.40;71.10
2763;DHT22;1389;51.490;7.338;2022-08-04T04:02:07;22.30;71.30
2763;DHT22;1389;51.490;7.338;2022-08-04T04:12:51;22.20;71.50
2763;DHT22;1389;51.490;7.338;2022-08-04T04:24:02;22.30;71.50
2763;DHT22;1389;51.490;7.338;2022-08-04T04:26:48;22.40;71.50
2763;DHT22;1389;51.490;7.338;2022-08-04T04:40:09;22.50;71.50
2763;DHT22;1389;51.490;7.338;2022-08-04T04:56:46;22.50;72.10
2763;DHT22;1389;51.490;7.338;2022-08-04T04:59:18;22.50;72.10
2763;DHT22;1389;51.490;7.338;2022-08-04T05:10:06;22.60;72.30
2763;DHT22;1389;51.490;7.338;2022-08-04T05:13:08;22.60;72.30
2763;DHT22;1389;51.490;7.338;2022-08-04T05:15:42;22.60;72.20
2763;DHT22;1389;51.490;7.338;2022-08-04T05:18:13;22.60;72.30
2763;DHT22;1389;51.490;7.338;2022-08-04T05:20:46;22.60;72.30
2763;DHT22;1389;51.490;7.338;2022-08-04T05:23:18;22.70;72.40
2763;DHT22;1389;51.490;7.338;2022-08-04T05:25:52;22.70;72.40
2763;DHT22;1389;51.490;7.338;2022-08-04T05:28:51;22.70;72.50
2763;DHT22;1389;51.490;7.338;2022-08-04T05:31:22;22.80;72.40
2763;DHT22;1389;51.490;7.338;2022-08-04T05:33:53;22.80;72.50
2763;DHT22;1389;51.490;7.338;2022-08-04T05:36:23;22.80;72.70
2763;DHT22;1389;51.490;7.338;2022-08-04T05:38:55;22.90;72.80
2763;DHT22;1389;51.490;7.338;2022-08-04T05:41:26;22.90;73.00
2763;DHT22;1389;51.490;7.338;2022-08-04T05:43:54;22.90;73.00
2763;DHT22;1389;51.490;7.338;2022-08-04T05:46:21;22.90;73.10
2763;DHT22;1389;51.490;7.338;2022-08-04T05:48:48;23.00;73.00
2763;DHT22;1389;51.490;7.338;2022-08-04T05:51:15;23.10;73.00
2763;DHT22;1389;51.490;7.338;2022-08-04T05:53:42;23.10;73.00
2763;DHT22;1389;51.490;7.338;2022-08-04T05:56:11;23.20;72.70
2763;DHT22;1389;51.490;7.338;2022-08-04T05:58:39;23.30;72.50
2763;DHT22;1389;51.490;7.338;2022-08-04T06:01:07;23.30;72.30
2763;DHT22;1389;51.490;7.338;2022-08-04T06:03:36;23.40;72.30
2763;DHT22;1389;51.490;7.338;2022-08-04T06:06:03;23.50;72.20
2763;DHT22;1389;51.490;7.338;2022-08-04T06:08:30;23.60;72.20
2763;DHT22;1389;51.490;7.338;2022-08-04T06:10:58;23.60;72.30
2763;DHT22;1389;51.490;7.338;2022-08-04T06:13:36;23.70;72.20
2763;DHT22;1389;51.490;7.338;2022-08-04T06:16:05;23.70;72.10
2763;DHT22;1389;51.490;7.338;2022-08-04T06:18:34;23.80;71.90
2763;DHT22;1389;51.490;7.338;2022-08-04T06:21:02;23.90;71.90
2763;DHT22;1389;51.490;7.338;2022-08-04T06:23:30;23.90;71.80
2763;DHT22;1389;51.490;7.338;2022-08-04T06:26:00;24.00;71.70
2763;DHT22;1389;51.490;7.338;2022-08-04T06:28:27;24.10;71.60
2763;DHT22;1389;51.490;7.338;2022-08-04T06:30:55;24.10;71.50
2763;DHT22;1389;51.490;7.338;2022-08-04T06:33:29;24.20;71.50
2763;DHT22;1389;51.490;7.338;2022-08-04T06:36:04;24.20;71.50
2763;DHT22;1389;51.490;7.338;2022-08-04T06:38:32;24.30;71.60
2763;DHT22;1389;51.490;7.338;2022-08-04T06:41:01;24.40;71.50
2763;DHT22;1389;51.490;7.338;2022-08-04T06:43:35;24.40;71.40
2763;DHT22;1389;51.490;7.338;2022-08-04T06:46:03;24.50;71.30
2763;DHT22;1389;51.490;7.338;2022-08-04T06:50:57;24.70;71.40
2763;DHT22;1389;51.490;7.338;2022-08-04T06:53:25;24.70;71.40
2763;DHT22;1389;51.490;7.338;2022-08-04T06:55:53;24.80;71.20
2763;DHT22;1389;51.490;7.338;2022-08-04T06:58:19;24.90;71.10
2763;DHT22;1389;51.490;7.338;2022-08-04T07:00:47;25.00;71.00
2763;DHT22;1389;51.490;7.338;2022-08-04T07:03:16;25.10;71.00
2763;DHT22;1389;51.490;7.338;2022-08-04T07:08:12;25.20;70.90
2763;DHT22;1389;51.490;7.338;2022-08-04T07:10:39;25.40;70.80
2763;DHT22;1389;51.490;7.338;2022-08-04T07:13:06;25.30;70.80
2763;DHT22;1389;51.490;7.338;2022-08-04T07:15:32;25.40;70.80
2763;DHT22;1389;51.490;7.338;2022-08-04T07:18:00;25.50;70.70
2763;DHT22;1389;51.490;7.338;2022-08-04T07:22:56;25.70;70.80
2763;DHT22;1389;51.490;7.338;2022-08-04T07:25:24;25.80;70.70
2763;DHT22;1389;51.490;7.338;2022-08-04T07:27:51;25.80;70.80
2763;DHT22;1389;51.490;7.338;2022-08-04T07:30:17;25.90;70.70
2763;DHT22;1389;51.490;7.338;2022-08-04T07:32:44;26.00;70.80
2763;DHT22;1389;51.490;7.338;2022-08-04T07:35:12;26.10;70.70
2763;DHT22;1389;51.490;7.338;2022-08-04T07:37:38;26.20;70.60
2763;DHT22;1389;51.490;7.338;2022-08-04T07:40:05;26.20;70.50
2763;DHT22;1389;51.490;7.338;2022-08-04T07:42:31;26.30;70.50
2763;DHT22;1389;51.490;7.338;2022-08-04T07:44:58;26.40;70.40
2763;DHT22;1389;51.490;7.338;2022-08-04T07:47:24;26.40;70.30
2763;DHT22;1389;51.490;7.338;2022-08-04T07:49:52;26.50;70.20
2763;DHT22;1389;51.490;7.338;2022-08-04T07:52:19;26.60;70.20
2763;DHT22;1389;51.490;7.338;2022-08-04T07:54:46;26.70;70.10
2763;DHT22;1389;51.490;7.338;2022-08-04T07:57:15;26.80;69.90
2763;DHT22;1389;51.490;7.338;2022-08-04T07:59:43;26.90;70.00
2763;DHT22;1389;51.490;7.338;2022-08-04T08:02:09;27.00;69.80
2763;DHT22;1389;51.490;7.338;2022-08-04T08:04:39;27.10;69.90
2763;DHT22;1389;51.490;7.338;2022-08-04T08:07:05;27.20;69.80
2763;DHT22;1389;51.490;7.338;2022-08-04T08:09:32;27.30;69.30
2763;DHT22;1389;51.490;7.338;2022-08-04T08:12:00;27.40;68.60
2763;DHT22;1389;51.490;7.338;2022-08-04T08:14:27;27.50;67.90
2763;DHT22;1389;51.490;7.338;2022-08-04T08:16:53;27.70;66.90
2763;DHT22;1389;51.490;7.338;2022-08-04T08:19:19;27.90;66.90
2763;DHT22;1389;51.490;7.338;2022-08-04T08:21:47;28.00;67.00
2763;DHT22;1389;51.490;7.338;2022-08-04T08:24:16;28.20;66.50
2763;DHT22;1389;51.490;7.338;2022-08-04T08:26:42;28.20;66.20
2763;DHT22;1389;51.490;7.338;2022-08-04T08:29:09;28.40;65.80
2763;DHT22;1389;51.490;7.338;2022-08-04T08:31:35;28.50;64.80
2763;DHT22;1389;51.490;7.338;2022-08-04T08:34:01;28.60;64.30
2763;DHT22;1389;51.490;7.338;2022-08-04T08:36:46;28.70;63.90
2763;DHT22;1389;51.490;7.338;2022-08-04T08:39:21;28.90;63.40
2763;DHT22;1389;51.490;7.338;2022-08-04T08:48:06;29.30;63.00
2763;DHT22;1389;51.490;7.338;2022-08-04T08:51:16;29.70;63.80
2763;DHT22;1389;51.490;7.338;2022-08-04T08:57:15;30.40;63.80
2763;DHT22;1389;51.490;7.338;2022-08-04T09:00:19;31.40;62.60
2763;DHT22;1389;51.490;7.338;2022-08-04T09:11:37;33.40;56.80
2763;DHT22;1389;51.490;7.338;2022-08-04T09:14:28;33.70;55.20
2763;DHT22;1389;51.490;7.338;2022-08-04T09:17:04;34.00;54.40
2763;DHT22;1389;51.490;7.338;2022-08-04T09:19:41;34.00;53.30
2763;DHT22;1389;51.490;7.338;2022-08-04T09:22:24;33.80;53.80
2763;DHT22;1389;51.490;7.338;2022-08-04T09:25:11;33.70;52.80
2763;DHT22;1389;51.490;7.338;2022-08-04T09:27:50;33.60;53.70
2763;DHT22;1389;51.490;7.338;2022-08-04T09:30:18;33.60;55.00
2763;DHT22;1389;51.490;7.338;2022-08-04T09:33:15;33.50;55.50
2763;DHT22;1389;51.490;7.338;2022-08-04T09:47:15;32.90;57.20
2763;DHT22;1389;51.490;7.338;2022-08-04T09:49:56;32.90;56.40
2763;DHT22;1389;51.490;7.338;2022-08-04T09:52:45;32.80;55.30
2763;DHT22;1389;51.490;7.338;2022-08-04T10:00:14;33.10;55.70
2763;DHT22;1389;51.490;7.338;2022-08-04T10:02:55;33.20;54.80
2763;DHT22;1389;51.490;7.338;2022-08-04T10:05:25;33.10;54.50
2763;DHT22;1389;51.490;7.338;2022-08-04T10:13:46;33.20;53.50
2763;DHT22;1389;51.490;7.338;2022-08-04T10:17:33;33.30;53.80
2763;DHT22;1389;51.490;7.338;2022-08-04T10:19:27;33.30;52.50
2763;DHT22;1389;51.490;7.338;2022-08-04T10:21:57;33.40;51.40
2763;DHT22;1389;51.490;7.338;2022-08-04T10:27:09;33.50;50.20
2763;DHT22;1389;51.490;7.338;2022-08-04T10:29:45;33.60;50.20
2763;DHT22;1389;51.490;7.338;2022-08-04T10:32:24;33.70;50.90
2763;DHT22;1389;51.490;7.338;2022-08-04T10:35:11;33.70;49.50
2763;DHT22;1389;51.490;7.338;2022-08-04T10:40:37;33.90;48.70
2763;DHT22;1389;51.490;7.338;2022-08-04T10:46:00;34.00;48.40
2763;DHT22;1389;51.490;7.338;2022-08-04T10:48:40;33.90;48.60
2763;DHT22;1389;51.490;7.338;2022-08-04T10:53:59;33.60;48.10
2763;DHT22;1389;51.490;7.338;2022-08-04T10:56:41;33.50;48.90
2763;DHT22;1389;51.490;7.338;2022-08-04T10:59:22;33.50;47.50
2763;DHT22;1389;51.490;7.338;2022-08-04T11:01:51;33.30;47.00
2763;DHT22;1389;51.490;7.338;2022-08-04T11:04:41;33.30;46.80
2763;DHT22;1389;51.490;7.338;2022-08-04T11:07:10;33.20;47.10
2763;DHT22;1389;51.490;7.338;2022-08-04T11:09:39;33.30;48.50
2763;DHT22;1389;51.490;7.338;2022-08-04T11:12:22;33.50;47.80
2763;DHT22;1389;51.490;7.338;2022-08-04T11:15:00;33.50;46.50
2763;DHT22;1389;51.490;7.338;2022-08-04T11:17:49;33.70;47.00
2763;DHT22;1389;51.490;7.338;2022-08-04T11:23:14;34.00;47.80
2763;DHT22;1389;51.490;7.338;2022-08-04T11:31:10;33.80;45.80
2763;DHT22;1389;51.490;7.338;2022-08-04T11:34:00;33.70;46.10
2763;DHT22;1389;51.490;7.338;2022-08-04T11:39:17;33.70;46.70
2763;DHT22;1389;51.490;7.338;2022-08-04T11:44:28;33.80;46.20
2763;DHT22;1389;51.490;7.338;2022-08-04T11:46:59;33.90;47.20
2763;DHT22;1389;51.490;7.338;2022-08-04T11:49:32;33.90;47.10
2763;DHT22;1389;51.490;7.338;2022-08-04T11:52:00;33.80;46.20
2763;DHT22;1389;51.490;7.338;2022-08-04T11:54:27;33.70;46.30
2763;DHT22;1389;51.490;7.338;2022-08-04T11:56:54;33.70;46.90
2763;DHT22;1389;51.490;7.338;2022-08-04T11:59:22;33.70;47.30
2763;DHT22;1389;51.490;7.338;2022-08-04T12:02:18;33.70;46.60
2763;DHT22;1389;51.490;7.338;2022-08-04T12:04:56;33.70;46.80
2763;DHT22;1389;51.490;7.338;2022-08-04T12:10:25;33.60;47.00
2763;DHT22;1389;51.490;7.338;2022-08-04T12:13:08;33.60;46.20
2763;DHT22;1389;51.490;7.338;2022-08-04T12:15:49;33.60;47.00
2763;DHT22;1389;51.490;7.338;2022-08-04T12:18:24;33.60;47.30
2763;DHT22;1389;51.490;7.338;2022-08-04T12:20:57;33.60;46.90
2763;DHT22;1389;51.490;7.338;2022-08-04T12:23:29;33.50;47.10
2763;DHT22;1389;51.490;7.338;2022-08-04T12:26:04;33.40;46.70
2763;DHT22;1389;51.490;7.338;2022-08-04T12:28:42;33.30;46.50
2763;DHT22;1389;51.490;7.338;2022-08-04T12:33:53;33.00;46.70
2763;DHT22;1389;51.490;7.338;2022-08-04T12:39:15;32.90;47.30
2763;DHT22;1389;51.490;7.338;2022-08-04T12:42:06;32.90;46.90
2763;DHT22;1389;51.490;7.338;2022-08-04T12:44:40;32.80;47.60
2763;DHT22;1389;51.490;7.338;2022-08-04T12:47:11;32.80;47.20
2763;DHT22;1389;51.490;7.338;2022-08-04T12:49:41;32.80;47.70
2763;DHT22;1389;51.490;7.338;2022-08-04T12:52:10;32.80;47.80
2763;DHT22;1389;51.490;7.338;2022-08-04T12:54:38;32.80;47.60
2763;DHT22;1389;51.490;7.338;2022-08-04T12:57:06;32.80;48.00
2763;DHT22;1389;51.490;7.338;2022-08-04T12:59:59;32.80;47.80
2763;DHT22;1389;51.490;7.338;2022-08-04T13:02:31;32.70;47.90
2763;DHT22;1389;51.490;7.338;2022-08-04T13:05:02;32.70;48.30
2763;DHT22;1389;51.490;7.338;2022-08-04T13:07:47;32.70;48.50
2763;DHT22;1389;51.490;7.338;2022-08-04T13:10:17;32.70;48.30
2763;DHT22;1389;51.490;7.338;2022-08-04T13:13:05;32.70;48.60
2763;DHT22;1389;51.490;7.338;2022-08-04T13:15:36;32.70;48.70
2763;DHT22;1389;51.490;7.338;2022-08-04T13:18:07;32.70;48.90
2763;DHT22;1389;51.490;7.338;2022-08-04T13:20:36;32.80;48.90
2763;DHT22;1389;51.490;7.338;2022-08-04T13:23:14;32.80;48.90
2763;DHT22;1389;51.490;7.338;2022-08-04T13:25:45;32.90;48.80
2763;DHT22;1389;51.490;7.338;2022-08-04T13:28:15;32.80;48.70
2763;DHT22;1389;51.490;7.338;2022-08-04T13:30:45;32.80;49.00
2763;DHT22;1389;51.490;7.338;2022-08-04T13:33:14;32.80;49.30
2763;DHT22;1389;51.490;7.338;2022-08-04T13:35:45;32.90;49.50
2763;DHT22;1389;51.490;7.338;2022-08-04T13:38:13;33.00;49.60
2763;DHT22;1389;51.490;7.338;2022-08-04T13:40:42;33.10;48.90
2763;DHT22;1389;51.490;7.338;2022-08-04T13:43:12;33.00;49.00
2763;DHT22;1389;51.490;7.338;2022-08-04T13:45:47;33.00;49.40
2763;DHT22;1389;51.490;7.338;2022-08-04T13:48:14;33.00;49.50
2763;DHT22;1389;51.490;7.338;2022-08-04T13:50:44;32.90;49.60
2763;DHT22;1389;51.490;7.338;2022-08-04T13:53:11;32.90;49.60
2763;DHT22;1389;51.490;7.338;2022-08-04T13:55:38;32.90;49.70
2763;DHT22;1389;51.490;7.338;2022-08-04T13:58:08;32.80;49.70
2763;DHT22;1389;51.490;7.338;2022-08-04T14:00:53;32.80;49.70
2763;DHT22;1389;51.490;7.338;2022-08-04T14:03:36;32.70;49.90
2763;DHT22;1389;51.490;7.338;2022-08-04T14:06:15;32.70;50.00
2763;DHT22;1389;51.490;7.338;2022-08-04T14:09:28;32.70;50.10
2763;DHT22;1389;51.490;7.338;2022-08-04T14:11:40;32.70;50.20
2763;DHT22;1389;51.490;7.338;2022-08-04T14:19:50;32.70;50.60
2763;DHT22;1389;51.490;7.338;2022-08-04T14:27:29;32.90;50.50
2763;DHT22;1389;51.490;7.338;2022-08-04T14:29:55;32.80;50.60
2763;DHT22;1389;51.490;7.338;2022-08-04T14:32:21;32.90;50.60
2763;DHT22;1389;51.490;7.338;2022-08-04T14:34:47;32.90;50.60
2763;DHT22;1389;51.490;7.338;2022-08-04T14:37:15;32.90;50.60
2763;DHT22;1389;51.490;7.338;2022-08-04T14:39:49;32.90;50.40
2763;DHT22;1389;51.490;7.338;2022-08-04T14:42:17;32.90;50.30
2763;DHT22;1389;51.490;7.338;2022-08-04T14:44:57;32.80;50.30
2763;DHT22;1389;51.490;7.338;2022-08-04T14:47:40;32.70;50.40
2763;DHT22;1389;51.490;7.338;2022-08-04T14:50:07;32.70;50.40
2763;DHT22;1389;51.490;7.338;2022-08-04T14:52:34;32.60;50.50
2763;DHT22;1389;51.490;7.338;2022-08-04T14:55:21;32.60;50.50
2763;DHT22;1389;51.490;7.338;2022-08-04T14:57:49;32.50;50.60
2763;DHT22;1389;51.490;7.338;2022-08-04T15:00:28;32.50;50.70
2763;DHT22;1389;51.490;7.338;2022-08-04T15:03:21;32.40;50.80
2763;DHT22;1389;51.490;7.338;2022-08-04T15:05:48;32.40;50.80
2763;DHT22;1389;51.490;7.338;2022-08-04T15:08:15;32.30;50.90
2763;DHT22;1389;51.490;7.338;2022-08-04T15:10:42;32.20;50.90
2763;DHT22;1389;51.490;7.338;2022-08-04T15:13:10;32.20;50.70
2763;DHT22;1389;51.490;7.338;2022-08-04T15:15:39;32.10;50.60
2763;DHT22;1389;51.490;7.338;2022-08-04T15:18:09;32.10;50.50
2763;DHT22;1389;51.490;7.338;2022-08-04T15:20:36;32.00;50.70
2763;DHT22;1389;51.490;7.338;2022-08-04T15:23:05;32.00;50.50
2763;DHT22;1389;51.490;7.338;2022-08-04T15:25:44;32.00;50.50
2763;DHT22;1389;51.490;7.338;2022-08-04T15:28:14;32.00;50.50
2763;DHT22;1389;51.490;7.338;2022-08-04T15:30:42;32.00;50.40
2763;DHT22;1389;51.490;7.338;2022-08-04T15:33:10;32.00;50.40
2763;DHT22;1389;51.490;7.338;2022-08-04T15:35:37;32.00;50.40
2763;DHT22;1389;51.490;7.338;2022-08-04T15:38:15;32.00;50.40
2763;DHT22;1389;51.490;7.338;2022-08-04T15:41:19;31.90;50.40
2763;DHT22;1389;51.490;7.338;2022-08-04T15:49:21;31.90;50.40
2763;DHT22;1389;51.490;7.338;2022-08-04T15:52:03;31.90;50.40
2763;DHT22;1389;51.490;7.338;2022-08-04T15:54:29;31.80;50.40
2763;DHT22;1389;51.490;7.338;2022-08-04T15:56:56;31.80;50.30
2763;DHT22;1389;51.490;7.338;2022-08-04T15:59:54;31.70;50.50
2763;DHT22;1389;51.490;7.338;2022-08-04T16:08:00;31.60;50.70
2763;DHT22;1389;51.490;7.338;2022-08-04T16:13:12;31.60;50.80
2763;DHT22;1389;51.490;7.338;2022-08-04T16:15:47;31.50;50.60
2763;DHT22;1389;51.490;7.338;2022-08-04T16:18:21;31.40;50.80
2763;DHT22;1389;51.490;7.338;2022-08-04T16:21:04;31.40;50.80
2763;DHT22;1389;51.490;7.338;2022-08-04T16:24:05;31.40;50.90
2763;DHT22;1389;51.490;7.338;2022-08-04T16:34:38;31.20;51.40
2763;DHT22;1389;51.490;7.338;2022-08-04T16:37:09;31.00;51.50
2763;DHT22;1389;51.490;7.338;2022-08-04T16:39:36;31.00;51.50
2763;DHT22;1389;51.490;7.338;2022-08-04T16:44:59;30.90;51.60
2763;DHT22;1389;51.490;7.338;2022-08-04T16:50:19;30.90;51.60
2763;DHT22;1389;51.490;7.338;2022-08-04T16:52:48;30.90;52.00
2763;DHT22;1389;51.490;7.338;2022-08-04T16:55:19;31.00;52.20
2763;DHT22;1389;51.490;7.338;2022-08-04T16:57:50;31.20;52.00
2763;DHT22;1389;51.490;7.338;2022-08-04T17:00:17;31.30;52.00
2763;DHT22;1389;51.490;7.338;2022-08-04T17:02:52;31.50;51.80
2763;DHT22;1389;51.490;7.338;2022-08-04T17:05:25;31.60;51.70
2763;DHT22;1389;51.490;7.338;2022-08-04T17:07:53;31.70;51.40
2763;DHT22;1389;51.490;7.338;2022-08-04T17:12:56;31.80;51.30
2763;DHT22;1389;51.490;7.338;2022-08-04T17:15:23;31.80;51.10
2763;DHT22;1389;51.490;7.338;2022-08-04T17:17:49;31.80;51.00
2763;DHT22;1389;51.490;7.338;2022-08-04T17:20:15;31.70;51.20
2763;DHT22;1389;51.490;7.338;2022-08-04T17:22:42;31.70;51.40
2763;DHT22;1389;51.490;7.338;2022-08-04T17:25:08;31.70;51.30
2763;DHT22;1389;51.490;7.338;2022-08-04T17:27:35;31.60;51.30
2763;DHT22;1389;51.490;7.338;2022-08-04T17:30:01;31.60;51.40
2763;DHT22;1389;51.490;7.338;2022-08-04T17:32:28;31.50;51.40
2763;DHT22;1389;51.490;7.338;2022-08-04T17:34:57;31.50;51.40
2763;DHT22;1389;51.490;7.338;2022-08-04T17:37:25;31.50;51.60
2763;DHT22;1389;51.490;7.338;2022-08-04T17:39:51;31.50;51.60
2763;DHT22;1389;51.490;7.338;2022-08-04T17:42:33;31.40;51.50
2763;DHT22;1389;51.490;7.338;2022-08-04T17:45:11;31.40;51.60
2763;DHT22;1389;51.490;7.338;2022-08-04T17:47:50;31.30;51.60
2763;DHT22;1389;51.490;7.338;2022-08-04T17:50:27;31.20;51.60
2763;DHT22;1389;51.490;7.338;2022-08-04T17:53:03;31.10;51.70
2763;DHT22;1389;51.490;7.338;2022-08-04T17:55:45;31.00;51.80
2763;DHT22;1389;51.490;7.338;2022-08-04T17:58:18;30.80;52.00
2763;DHT22;1389;51.490;7.338;2022-08-04T18:00:46;30.70;52.00
2763;DHT22;1389;51.490;7.338;2022-08-04T18:03:22;30.60;52.30
2763;DHT22;1389;51.490;7.338;2022-08-04T18:05:48;30.60;52.30
2763;DHT22;1389;51.490;7.338;2022-08-04T18:10:42;30.50;52.40
2763;DHT22;1389;51.490;7.338;2022-08-04T18:13:09;30.50;52.40
2763;DHT22;1389;51.490;7.338;2022-08-04T18:15:35;30.50;52.40
2763;DHT22;1389;51.490;7.338;2022-08-04T18:18:20;30.40;52.50
2763;DHT22;1389;51.490;7.338;2022-08-04T18:20:47;30.40;52.50
2763;DHT22;1389;51.490;7.338;2022-08-04T18:23:14;30.30;52.50
2763;DHT22;1389;51.490;7.338;2022-08-04T18:25:44;30.20;52.60
2763;DHT22;1389;51.490;7.338;2022-08-04T18:28:12;30.10;52.70
2763;DHT22;1389;51.490;7.338;2022-08-04T18:30:39;30.10;52.90
2763;DHT22;1389;51.490;7.338;2022-08-04T18:33:06;30.00;53.00
2763;DHT22;1389;51.490;7.338;2022-08-04T18:35:33;30.00;53.00
2763;DHT22;1389;51.490;7.338;2022-08-04T18:38:02;29.90;53.10
2763;DHT22;1389;51.490;7.338;2022-08-04T18:40:29;29.90;53.20
2763;DHT22;1389;51.490;7.338;2022-08-04T18:42:55;29.90;53.30
2763;DHT22;1389;51.490;7.338;2022-08-04T18:45:21;29.80;53.30
2763;DHT22;1389;51.490;7.338;2022-08-04T18:47:49;29.70;53.60
2763;DHT22;1389;51.490;7.338;2022-08-04T18:50:16;29.60;53.70
2763;DHT22;1389;51.490;7.338;2022-08-04T18:52:42;29.60;54.00
2763;DHT22;1389;51.490;7.338;2022-08-04T18:55:08;29.50;54.10
2763;DHT22;1389;51.490;7.338;2022-08-04T18:57:34;29.40;54.20
2763;DHT22;1389;51.490;7.338;2022-08-04T19:00:01;29.30;54.60
2763;DHT22;1389;51.490;7.338;2022-08-04T19:02:30;29.30;54.90
2763;DHT22;1389;51.490;7.338;2022-08-04T19:04:56;29.20;55.10
2763;DHT22;1389;51.490;7.338;2022-08-04T19:07:22;29.10;55.10
2763;DHT22;1389;51.490;7.338;2022-08-04T19:09:48;29.10;55.30
2763;DHT22;1389;51.490;7.338;2022-08-04T19:12:14;29.10;55.40
2763;DHT22;1389;51.490;7.338;2022-08-04T19:14:40;29.00;55.60
2763;DHT22;1389;51.490;7.338;2022-08-04T19:17:06;29.00;55.80
2763;DHT22;1389;51.490;7.338;2022-08-04T19:19:33;28.90;55.80
2763;DHT22;1389;51.490;7.338;2022-08-04T19:21:59;28.90;56.00
2763;DHT22;1389;51.490;7.338;2022-08-04T19:24:28;28.90;55.90
2763;DHT22;1389;51.490;7.338;2022-08-04T19:26:54;28.80;56.00
2763;DHT22;1389;51.490;7.338;2022-08-04T19:34:13;28.80;56.40
2763;DHT22;1389;51.490;7.338;2022-08-04T19:36:39;28.70;56.40
2763;DHT22;1389;51.490;7.338;2022-08-04T19:39:07;28.60;56.60
2763;DHT22;1389;51.490;7.338;2022-08-04T19:41:33;28.50;56.70
2763;DHT22;1389;51.490;7.338;2022-08-04T19:44:03;28.50;56.70
2763;DHT22;1389;51.490;7.338;2022-08-04T19:46:29;28.40;56.90
2763;DHT22;1389;51.490;7.338;2022-08-04T19:48:57;28.40;56.90
2763;DHT22;1389;51.490;7.338;2022-08-04T19:51:28;28.40;57.10
2763;DHT22;1389;51.490;7.338;2022-08-04T19:53:54;28.40;57.20
2763;DHT22;1389;51.490;7.338;2022-08-04T19:56:22;28.30;57.20
2763;DHT22;1389;51.490;7.338;2022-08-04T19:58:48;28.30;57.20
2763;DHT22;1389;51.490;7.338;2022-08-04T20:01:14;28.30;57.30
2763;DHT22;1389;51.490;7.338;2022-08-04T20:03:40;28.20;57.40
2763;DHT22;1389;51.490;7.338;2022-08-04T20:06:08;28.20;57.50
2763;DHT22;1389;51.490;7.338;2022-08-04T20:08:34;28.10;57.80
2763;DHT22;1389;51.490;7.338;2022-08-04T20:11:00;28.10;57.90
2763;DHT22;1389;51.490;7.338;2022-08-04T20:13:27;28.10;58.00
2763;DHT22;1389;51.490;7.338;2022-08-04T20:15:56;28.10;58.00
2763;DHT22;1389;51.490;7.338;2022-08-04T20:18:27;28.00;58.10
2763;DHT22;1389;51.490;7.338;2022-08-04T20:20:54;28.00;58.10
2763;DHT22;1389;51.490;7.338;2022-08-04T20:23:20;28.00;58.10
2763;DHT22;1389;51.490;7.338;2022-08-04T20:25:46;27.90;58.30
2763;DHT22;1389;51.490;7.338;2022-08-04T20:28:12;27.90;58.50
2763;DHT22;1389;51.490;7.338;2022-08-04T20:30:38;27.90;58.60
2763;DHT22;1389;51.490;7.338;2022-08-04T20:33:04;27.80;58.60
2763;DHT22;1389;51.490;7.338;2022-08-04T20:35:30;27.80;58.70
2763;DHT22;1389;51.490;7.338;2022-08-04T20:37:58;27.80;58.80
2763;DHT22;1389;51.490;7.338;2022-08-04T20:40:24;27.70;58.90
2763;DHT22;1389;51.490;7.338;2022-08-04T20:42:50;27.70;59.00
2763;DHT22;1389;51.490;7.338;2022-08-04T20:45:17;27.70;59.10
2763;DHT22;1389;51.490;7.338;2022-08-04T20:47:44;27.60;59.20
2763;DHT22;1389;51.490;7.338;2022-08-04T20:50:12;27.60;59.20
2763;DHT22;1389;51.490;7.338;2022-08-04T20:52:38;27.50;59.50
2763;DHT22;1389;51.490;7.338;2022-08-04T20:55:08;27.50;59.60
2763;DHT22;1389;51.490;7.338;2022-08-04T20:57:34;27.50;59.70
2763;DHT22;1389;51.490;7.338;2022-08-04T21:00:01;27.40;59.70
2763;DHT22;1389;51.490;7.338;2022-08-04T21:02:27;27.40;59.80